Time;durP1;ratioP1;P1;durP2;ratioP2;P2;SDS_P1;SDS_P2;PMS_P1;PMS_P2;Temp;Humidity;BMP_temperature;BMP_pressure;BME280_temperature;BME280_humidity;BME280_pressure;Samples;Min_cycle;Max_cycle;Signal;HPM_P1;HPM_P2
2022/03/01 00:01:20;;;;;;;71.67;27.93;;;-2.30;99.90;;;;;;10407253;28;20030;-85
2022/03/01 00:06:21;;;;;;;66.23;25.33;;;-2.40;99.90;;;;;;10408925;28;20029;-84
2022/03/01 00:11:22;;;;;;;71.80;27.17;;;-2.40;99.90;;;;;;10408344;28;20046;-85
2022/03/01 00:16:23;;;;;;;75.97;27.77;;;-2.50;99.90;;;;;;10409639;28;20059;-84
2022/03/01 00:21:24;;;;;;;63.67;26.90;;;-2.70;99.90;;;;;;10415050;28;20154;-88
2022/03/01 00:26:25;;;;;;;65.03;26.93;;;-2.70;99.90;;;;;;10416084;28;20046;-84
2022/03/01 00:31:26;;;;;;;68.00;27.07;;;-2.80;99.90;;;;;;10414287;28;20029;-86
2022/03/01 00:36:27;;;;;;;73.00;27.27;;;-2.70;99.90;;;;;;10415722;28;20040;-85
2022/03/01 00:41:27;;;;;;;70.47;28.20;;;-2.60;99.90;;;;;;10414157;28;20041;-85
2022/03/01 00:46:28;;;;;;;59.00;26.90;;;-2.70;99.90;;;;;;10413173;28;20478;-85
2022/03/01 00:51:29;;;;;;;60.87;25.47;;;-2.70;99.90;;;;;;10415505;28;20036;-85
2022/03/01 00:56:30;;;;;;;59.70;25.73;;;-2.60;99.90;;;;;;10414120;28;20037;-85
2022/03/01 01:01:31;;;;;;;63.03;25.63;;;-2.60;99.90;;;;;;10413726;28;20037;-85
2022/03/01 01:06:32;;;;;;;68.43;28.13;;;-2.60;99.90;;;;;;10414099;28;20045;-85
2022/03/01 01:11:32;;;;;;;65.00;26.53;;;-2.60;99.90;;;;;;10414588;28;20044;-85
2022/03/01 01:16:33;;;;;;;69.60;28.57;;;-2.60;99.90;;;;;;10413488;28;20383;-85
2022/03/01 01:26:53;;;;;;;60.50;24.87;;;-2.70;99.90;;;;;;10412705;28;20456;-84
2022/03/01 01:31:54;;;;;;;70.43;26.10;;;-2.70;99.90;;;;;;10410903;28;20033;-86
2022/03/01 01:36:55;;;;;;;61.33;26.40;;;-2.70;99.90;;;;;;10413891;28;20044;-86
2022/03/01 01:41:56;;;;;;;66.40;25.90;;;-2.70;99.90;;;;;;10410864;28;20041;-85
2022/03/01 01:46:57;;;;;;;64.40;26.83;;;-2.70;99.90;;;;;;10411747;28;20037;-85
2022/03/01 01:51:58;;;;;;;61.07;25.27;;;-2.70;99.90;;;;;;10413195;28;20472;-86
2022/03/01 01:56:58;;;;;;;57.10;23.63;;;-2.70;99.90;;;;;;10411978;28;20021;-85
2022/03/01 02:01:59;;;;;;;61.10;26.60;;;-2.80;99.90;;;;;;10411270;28;20037;-85
2022/03/01 02:07:00;;;;;;;61.03;26.27;;;-2.80;99.90;;;;;;10412193;28;20073;-87
2022/03/01 02:12:02;;;;;;;58.93;25.53;;;-3.00;99.90;;;;;;10412191;28;20034;-86
2022/03/01 02:17:06;;;;;;;60.00;26.97;;;-3.00;99.90;;;;;;10410230;28;20467;-87
2022/03/01 02:22:07;;;;;;;59.70;26.27;;;-3.00;99.90;;;;;;10409869;28;20099;-85
2022/03/01 02:27:08;;;;;;;57.33;24.20;;;-3.00;99.90;;;;;;10409237;28;20031;-85
2022/03/01 02:32:09;;;;;;;62.73;25.63;;;-3.00;99.90;;;;;;10410525;28;20079;-85
2022/03/01 02:37:10;;;;;;;59.17;26.20;;;-3.00;99.90;;;;;;10411755;28;20057;-86
2022/03/01 02:42:10;;;;;;;60.17;26.07;;;-3.00;99.90;;;;;;10410312;28;20128;-85
2022/03/01 02:47:11;;;;;;;59.57;26.23;;;-3.00;99.90;;;;;;10408237;28;20080;-85
2022/03/01 02:52:12;;;;;;;52.07;24.10;;;-3.10;99.90;;;;;;10409969;28;20037;-87
2022/03/01 02:57:14;;;;;;;63.40;25.83;;;-3.10;99.90;;;;;;10409414;28;20138;-85
2022/03/01 03:02:15;;;;;;;58.73;24.50;;;-3.30;99.90;;;;;;10409266;28;20120;-85
2022/03/01 03:07:16;;;;;;;57.17;25.53;;;-3.40;99.90;;;;;;10407762;28;20025;-85
2022/03/01 03:12:18;;;;;;;69.27;25.83;;;-3.60;99.90;;;;;;10409818;28;20037;-84
2022/03/01 03:17:19;;;;;;;71.70;30.30;;;-3.60;99.90;;;;;;10409411;28;20131;-86
2022/03/01 03:22:20;;;;;;;60.93;27.17;;;-3.60;99.90;;;;;;10408522;28;20073;-85
2022/03/01 03:27:20;;;;;;;56.97;25.83;;;-3.50;99.90;;;;;;10406983;28;20053;-85
2022/03/01 03:32:21;;;;;;;60.37;26.33;;;-3.40;99.90;;;;;;10406765;28;20504;-87
2022/03/01 03:37:22;;;;;;;71.57;27.07;;;-3.30;99.90;;;;;;10407166;28;20056;-85
2022/03/01 03:42:23;;;;;;;63.50;27.60;;;-3.30;99.90;;;;;;10408407;28;20042;-85
2022/03/01 03:47:23;;;;;;;65.50;29.73;;;-3.30;99.90;;;;;;10407362;28;20057;-86
2022/03/01 03:52:24;;;;;;;62.80;27.63;;;-3.40;99.90;;;;;;10406564;28;20483;-85
2022/03/01 03:57:25;;;;;;;66.13;28.00;;;-3.40;99.90;;;;;;10407746;28;20068;-88
2022/03/01 04:02:26;;;;;;;61.77;27.27;;;-3.50;99.90;;;;;;10407474;28;20048;-88
2022/03/01 04:07:29;;;;;;;62.57;27.63;;;-3.50;99.90;;;;;;10406480;28;20125;-90
2022/03/01 04:12:31;;;;;;;66.50;29.90;;;-3.50;99.90;;;;;;10407422;28;20026;-87
2022/03/01 04:17:32;;;;;;;70.63;28.23;;;-3.50;99.90;;;;;;10408422;28;20052;-87
2022/03/01 04:22:34;;;;;;;64.07;28.37;;;-3.50;99.90;;;;;;10406444;28;20521;-85
2022/03/01 04:27:35;;;;;;;66.37;28.27;;;-3.50;99.90;;;;;;10406623;28;20038;-86
2022/03/01 04:32:35;;;;;;;69.63;29.27;;;-3.50;99.90;;;;;;10406810;28;20034;-86
2022/03/01 04:37:41;;;;;;;69.77;31.70;;;-3.60;99.90;;;;;;10406408;28;20026;-88
2022/03/01 04:42:42;;;;;;;72.20;31.65;;;-3.60;99.90;;;;;;10407038;28;20044;-86
2022/03/01 04:47:43;;;;;;;74.97;32.17;;;-3.60;99.90;;;;;;10406271;28;20563;-85
2022/03/01 04:52:43;;;;;;;81.83;32.67;;;-3.70;99.90;;;;;;10407269;28;20034;-84
2022/03/01 04:57:44;;;;;;;76.60;32.03;;;-3.70;99.90;;;;;;10405453;28;20033;-87
2022/03/01 05:02:47;;;;;;;76.97;33.30;;;-3.70;99.90;;;;;;10407911;28;20473;-84
2022/03/01 05:07:48;;;;;;;74.47;29.90;;;-3.70;99.90;;;;;;10414271;28;20025;-85
2022/03/01 05:12:59;;;;;;;71.47;31.47;;;-3.70;99.90;;;;;;10413591;28;20026;-85
2022/03/01 05:18:00;;;;;;;79.23;31.87;;;-3.70;99.90;;;;;;10412924;28;20057;-87
2022/03/01 05:23:00;;;;;;;79.80;34.47;;;-3.70;99.90;;;;;;10412095;28;20524;-85
2022/03/01 05:28:01;;;;;;;71.43;32.67;;;-3.70;99.90;;;;;;10412678;28;20060;-85
2022/03/01 05:33:02;;;;;;;69.80;30.43;;;-3.70;99.90;;;;;;10412065;28;20044;-83
2022/03/01 05:38:03;;;;;;;77.53;32.40;;;-3.70;99.90;;;;;;10430910;28;20037;-83
2022/03/01 05:43:05;;;;;;;70.53;32.67;;;-3.80;99.90;;;;;;10429056;28;20086;-83
2022/03/01 05:48:05;;;;;;;73.70;31.97;;;-3.80;99.90;;;;;;10442458;28;20078;-84
2022/03/01 05:53:06;;;;;;;70.43;30.57;;;-3.70;99.90;;;;;;10454398;28;20151;-84
2022/03/01 05:58:07;;;;;;;73.10;31.13;;;-3.70;99.90;;;;;;10418735;28;20037;-84
2022/03/01 06:03:07;;;;;;;72.80;32.50;;;-3.60;99.90;;;;;;10412849;28;20033;-84
2022/03/01 06:08:08;;;;;;;69.10;32.17;;;-3.50;99.90;;;;;;10411754;28;20056;-84
2022/03/01 06:13:09;;;;;;;71.00;29.90;;;-3.50;99.90;;;;;;10411256;28;20029;-84
2022/03/01 06:18:09;;;;;;;73.30;30.77;;;-3.40;99.90;;;;;;10415485;28;20108;-84
2022/03/01 06:23:11;;;;;;;68.67;29.00;;;-3.30;99.90;;;;;;10424823;28;20531;-83
2022/03/01 06:28:11;;;;;;;71.50;29.40;;;-3.30;99.90;;;;;;10411542;28;20028;-85
2022/03/01 06:33:12;;;;;;;69.20;30.00;;;-3.20;99.90;;;;;;10410748;28;20095;-84
2022/03/01 06:38:13;;;;;;;73.40;30.27;;;-3.20;99.90;;;;;;10408273;28;20014;-84
2022/03/01 06:43:14;;;;;;;68.90;31.63;;;-3.00;99.90;;;;;;10410480;28;20136;-84
2022/03/01 06:48:14;;;;;;;71.00;30.80;;;-2.90;99.90;;;;;;10410835;28;20026;-85
2022/03/01 06:53:16;;;;;;;77.37;33.23;;;-2.80;99.90;;;;;;10411229;28;20021;-84
2022/03/01 06:58:17;;;;;;;73.53;31.53;;;-2.70;99.90;;;;;;10410796;28;20023;-84
2022/03/01 07:03:18;;;;;;;77.90;32.10;;;-2.50;99.90;;;;;;10409900;28;20389;-84
2022/03/01 07:08:20;;;;;;;67.50;30.27;;;-2.40;99.90;;;;;;10410022;28;20036;-83
2022/03/01 07:13:21;;;;;;;69.90;29.93;;;-2.20;99.90;;;;;;10409676;28;20029;-84
2022/03/01 07:18:21;;;;;;;72.23;30.73;;;-2.00;99.90;;;;;;10409591;28;20837;-84
2022/03/01 07:23:22;;;;;;;77.90;33.43;;;-1.90;99.90;;;;;;10409645;28;20045;-86
2022/03/01 07:28:23;;;;;;;65.33;28.17;;;-1.70;99.90;;;;;;10407305;28;20382;-85
2022/03/01 07:33:24;;;;;;;68.37;27.77;;;-1.40;99.90;;;;;;10409152;28;20033;-84
2022/03/01 07:38:25;;;;;;;66.57;28.30;;;-1.20;99.90;;;;;;10409101;28;20030;-84
2022/03/01 07:43:25;;;;;;;68.47;31.03;;;-0.90;99.90;;;;;;10389478;28;20053;-84
2022/03/01 07:48:26;;;;;;;57.43;26.00;;;-0.70;99.90;;;;;;10367915;28;20030;-86
2022/03/01 07:53:27;;;;;;;54.23;24.60;;;-0.50;99.90;;;;;;10367662;28;20034;-84
2022/03/01 07:58:27;;;;;;;50.40;23.33;;;-0.20;99.90;;;;;;10367765;28;20034;-84
2022/03/01 08:03:28;;;;;;;48.33;22.40;;;0.20;99.90;;;;;;10367145;28;20042;-84
2022/03/01 08:08:29;;;;;;;49.43;20.03;;;0.40;99.90;;;;;;10382933;28;20030;-85
2022/03/01 08:13:30;;;;;;;46.80;21.37;;;0.80;99.90;;;;;;10367336;28;20397;-84
2022/03/01 08:18:31;;;;;;;45.83;19.53;;;1.10;99.90;;;;;;10367380;28;20030;-84
2022/03/01 08:23:32;;;;;;;43.83;17.87;;;1.40;99.90;;;;;;10366252;28;20065;-84
2022/03/01 08:28:33;;;;;;;31.13;15.93;;;1.60;99.90;;;;;;10366855;28;20032;-84
2022/03/01 08:33:34;;;;;;;27.20;12.80;;;1.80;99.90;;;;;;10367567;28;20022;-83
2022/03/01 08:38:36;;;;;;;22.47;9.70;;;2.20;99.90;;;;;;10371396;28;20064;-83
2022/03/01 08:43:37;;;;;;;17.43;8.17;;;2.60;94.10;;;;;;10374724;28;20042;-83
2022/03/01 08:48:38;;;;;;;24.87;9.47;;;2.90;90.50;;;;;;10374574;28;20037;-83
2022/03/01 08:53:39;;;;;;;22.70;11.23;;;3.00;91.00;;;;;;10374740;28;20034;-83
2022/03/01 08:58:40;;;;;;;24.97;10.87;;;3.20;89.30;;;;;;10374712;28;20497;-83
2022/03/01 09:03:41;;;;;;;16.00;8.20;;;3.70;92.60;;;;;;10374204;28;20069;-84
2022/03/01 09:08:42;;;;;;;22.33;9.60;;;3.80;81.40;;;;;;10374078;28;20030;-83
2022/03/01 09:13:43;;;;;;;18.43;8.47;;;3.60;79.70;;;;;;10373681;28;20065;-83
2022/03/01 09:18:43;;;;;;;16.83;8.03;;;3.60;80.40;;;;;;10373208;28;20044;-83
2022/03/01 09:23:44;;;;;;;16.70;7.73;;;3.60;77.30;;;;;;10373159;28;20125;-83
2022/03/01 09:28:45;;;;;;;18.23;9.07;;;3.40;75.60;;;;;;10372927;28;20630;-82
2022/03/01 09:33:46;;;;;;;28.67;11.13;;;3.80;79.00;;;;;;10373392;28;20062;-82
2022/03/01 09:38:46;;;;;;;11.97;6.03;;;4.30;80.10;;;;;;10373357;28;20177;-83
2022/03/01 09:43:52;;;;;;;10.00;5.50;;;4.50;72.60;;;;;;10372202;28;20080;-82
2022/03/01 09:48:52;;;;;;;11.70;5.90;;;4.50;67.70;;;;;;10371966;28;20025;-83
2022/03/01 09:53:54;;;;;;;13.77;5.97;;;4.40;71.30;;;;;;10372692;28;20352;-82
2022/03/01 09:58:55;;;;;;;20.60;8.70;;;4.80;68.70;;;;;;10372025;28;20553;-82
2022/03/01 10:04:10;;;;;;;13.83;6.17;;;4.90;70.50;;;;;;10371586;28;20030;-83
2022/03/01 10:09:14;;;;;;;14.30;6.03;;;5.40;68.90;;;;;;10372019;28;20030;-82
2022/03/01 10:14:25;;;;;;;16.33;6.60;;;5.70;64.50;;;;;;10371362;28;20184;-83
2022/03/01 10:19:26;;;;;;;13.43;5.70;;;5.50;64.10;;;;;;10371223;28;20033;-82
2022/03/01 10:24:27;;;;;;;13.63;5.80;;;5.30;64.70;;;;;;10370938;28;20030;-82
2022/03/01 10:29:29;;;;;;;9.23;5.53;;;5.20;65.60;;;;;;10371255;28;20168;-82
2022/03/01 10:34:30;;;;;;;21.13;8.10;;;5.10;63.80;;;;;;10370494;28;20759;-82
2022/03/01 10:39:31;;;;;;;11.37;5.13;;;5.30;66.70;;;;;;10370161;28;20037;-82
2022/03/01 10:44:32;;;;;;;15.67;8.07;;;5.80;63.80;;;;;;10370266;28;20037;-82
2022/03/01 10:49:35;;;;;;;8.80;4.40;;;5.90;64.10;;;;;;10369962;28;20041;-83
2022/03/01 10:54:41;;;;;;;12.70;5.43;;;5.70;58.20;;;;;;10370139;28;20050;-82
2022/03/01 10:59:42;;;;;;;8.65;4.60;;;5.50;58.50;;;;;;10369509;28;20040;-82
2022/03/01 11:04:43;;;;;;;37.57;12.57;;;5.40;58.90;;;;;;10369595;28;20030;-82
2022/03/01 11:09:45;;;;;;;35.17;12.80;;;5.70;60.90;;;;;;10370338;28;20026;-82
2022/03/01 11:14:55;;;;;;;18.50;6.40;;;5.60;59.10;;;;;;10369123;28;20058;-82
2022/03/01 11:20:03;;;;;;;19.37;6.53;;;5.50;60.40;;;;;;10369740;28;20022;-83
2022/03/01 11:25:04;;;;;;;12.87;5.10;;;6.00;61.40;;;;;;10369210;28;20037;-82
2022/03/01 11:30:10;;;;;;;12.80;5.43;;;6.10;58.80;;;;;;10368973;28;20023;-82
2022/03/01 11:35:24;;;;;;;8.50;4.83;;;5.90;59.80;;;;;;10368375;28;20033;-82
2022/03/01 11:40:25;;;;;;;8.37;4.50;;;5.90;57.10;;;;;;10380670;28;20048;-83
2022/03/01 11:45:33;;;;;;;9.67;4.40;;;5.80;55.40;;;;;;10450227;28;20036;-82
2022/03/01 11:50:34;;;;;;;7.77;4.10;;;5.70;55.00;;;;;;10449655;28;20403;-83
2022/03/01 11:55:44;;;;;;;9.60;4.90;;;6.00;59.40;;;;;;10450778;28;20067;-82
2022/03/01 12:00:46;;;;;;;11.87;5.00;;;6.00;55.10;;;;;;10449581;28;20528;-82
2022/03/01 12:05:49;;;;;;;8.87;4.63;;;5.90;56.00;;;;;;10450113;28;20048;-82
2022/03/01 12:11:05;;;;;;;18.20;7.23;;;5.90;55.40;;;;;;10450260;28;20029;-82
2022/03/01 12:16:07;;;;;;;8.10;4.25;;;6.00;58.00;;;;;;10458708;28;20730;-83
2022/03/01 12:21:11;;;;;;;8.97;4.33;;;6.20;54.80;;;;;;10458020;28;20025;-82
2022/03/01 12:26:15;;;;;;;11.73;5.57;;;6.10;52.90;;;;;;10457316;28;20397;-83
2022/03/01 12:31:15;;;;;;;10.17;4.27;;;6.20;53.70;;;;;;10457574;28;20017;-82
2022/03/01 12:36:36;;;;;;;6.90;3.63;;;6.60;53.50;;;;;;10457430;28;20024;-83
2022/03/01 12:41:38;;;;;;;7.93;4.00;;;6.40;51.40;;;;;;10457159;28;20035;-83
2022/03/01 12:46:40;;;;;;;8.67;4.30;;;6.30;52.70;;;;;;10456679;28;20051;-83
2022/03/01 12:51:42;;;;;;;12.30;4.17;;;6.20;51.30;;;;;;10457160;28;20450;-83
2022/03/01 12:56:54;;;;;;;9.07;4.07;;;6.30;53.30;;;;;;10456514;28;20040;-82
2022/03/01 13:01:57;;;;;;;7.80;4.23;;;6.30;51.50;;;;;;10456216;28;20041;-82
2022/03/01 13:06:58;;;;;;;8.03;4.17;;;6.00;50.80;;;;;;10456167;28;20446;-82
2022/03/01 13:12:00;;;;;;;11.17;4.40;;;6.00;49.10;;;;;;10455911;28;20054;-83
2022/03/01 13:17:02;;;;;;;7.27;3.90;;;6.00;50.60;;;;;;10455685;28;20247;-82
2022/03/01 13:22:09;;;;;;;10.60;4.90;;;6.10;50.50;;;;;;10455294;28;20040;-83
2022/03/01 13:27:15;;;;;;;11.90;5.33;;;6.20;51.00;;;;;;10454004;28;20056;-82
2022/03/01 13:32:21;;;;;;;57.13;34.77;;;6.00;51.20;;;;;;10454928;28;20150;-82
2022/03/01 13:37:25;;;;;;;13.93;7.07;;;6.00;50.20;;;;;;10455576;28;20071;-83
2022/03/01 13:42:31;;;;;;;9.73;5.70;;;6.00;51.20;;;;;;10454739;28;20295;-83
2022/03/01 13:47:36;;;;;;;261.50;129.32;;;6.10;51.90;;;;;;10422600;28;20032;-83
2022/03/01 13:52:42;;;;;;;16.60;7.20;;;6.00;52.70;;;;;;10422322;28;20056;-84
2022/03/01 13:57:47;;;;;;;11.17;6.27;;;6.10;52.90;;;;;;10429794;28;20072;-82
2022/03/01 14:03:10;;;;;;;15.20;6.80;;;6.10;52.70;;;;;;10422522;28;20052;-83
2022/03/01 14:08:16;;;;;;;48.23;19.73;;;5.90;52.60;;;;;;10431396;28;20103;-82
2022/03/01 14:13:20;;;;;;;14.30;6.90;;;5.60;51.40;;;;;;10440397;28;20103;-82
2022/03/01 14:18:31;;;;;;;12.33;5.63;;;5.50;51.80;;;;;;10421797;28;20068;-82
2022/03/01 14:23:32;;;;;;;10.97;5.03;;;5.60;52.90;;;;;;10412606;28;20029;-82
2022/03/01 14:28:34;;;;;;;13.10;5.63;;;5.60;52.20;;;;;;10417982;28;20033;-82
2022/03/01 14:33:35;;;;;;;14.33;5.80;;;5.40;51.80;;;;;;10420967;28;20041;-83
2022/03/01 14:38:36;;;;;;;13.67;6.27;;;5.30;51.70;;;;;;10409681;28;20620;-82
2022/03/01 14:43:36;;;;;;;13.80;5.93;;;5.20;53.10;;;;;;10410638;28;20048;-83
2022/03/01 14:48:37;;;;;;;10.03;5.77;;;5.20;53.20;;;;;;10414632;28;20033;-82
2022/03/01 14:53:38;;;;;;;14.90;6.47;;;5.00;52.80;;;;;;10409983;28;20052;-82
2022/03/01 14:58:38;;;;;;;11.20;5.60;;;5.00;53.90;;;;;;10411242;28;20047;-83
2022/03/01 15:03:39;;;;;;;12.90;6.00;;;5.00;54.20;;;;;;10390315;28;20128;-82
2022/03/01 15:08:40;;;;;;;13.17;5.17;;;4.90;53.50;;;;;;10406317;28;20025;-82
2022/03/01 15:13:41;;;;;;;10.37;5.80;;;4.90;54.60;;;;;;10409167;28;20195;-83
2022/03/01 15:18:42;;;;;;;12.93;6.00;;;4.80;54.30;;;;;;10409740;28;20378;-83
2022/03/01 15:23:42;;;;;;;10.30;5.60;;;4.80;55.00;;;;;;10409848;28;20052;-82
2022/03/01 15:28:44;;;;;;;311.77;139.40;;;4.80;55.40;;;;;;10409379;28;20104;-83
2022/03/01 15:33:44;;;;;;;265.33;108.00;;;4.70;55.60;;;;;;10409096;28;20044;-82
2022/03/01 15:38:45;;;;;;;29.77;13.30;;;4.50;54.70;;;;;;10409713;28;20544;-82
2022/03/01 15:43:46;;;;;;;18.47;6.47;;;4.50;54.90;;;;;;10409280;28;20059;-82
2022/03/01 15:48:47;;;;;;;15.43;6.60;;;4.40;56.00;;;;;;10408137;28;20029;-83
2022/03/01 15:53:47;;;;;;;114.77;46.43;;;4.30;56.40;;;;;;10407264;28;20037;-82
2022/03/01 15:58:48;;;;;;;62.80;25.13;;;4.20;56.30;;;;;;10408803;28;20696;-82
2022/03/01 16:03:49;;;;;;;145.40;58.70;;;4.00;56.20;;;;;;10372630;28;20497;-82
2022/03/01 16:08:50;;;;;;;249.73;91.63;;;3.80;57.60;;;;;;10394293;28;20542;-83
2022/03/01 16:13:50;;;;;;;341.93;114.63;;;3.60;58.00;;;;;;10408085;28;20049;-82
2022/03/01 16:18:51;;;;;;;96.97;31.43;;;3.40;58.50;;;;;;10404039;28;20040;-83
2022/03/01 16:23:52;;;;;;;48.13;18.40;;;3.20;59.70;;;;;;10405799;28;20049;-82
2022/03/01 16:28:52;;;;;;;45.43;15.67;;;2.70;61.20;;;;;;10407503;28;20052;-82
2022/03/01 16:33:54;;;;;;;25.73;10.80;;;2.30;63.00;;;;;;10406564;28;20048;-83
2022/03/01 16:38:55;;;;;;;35.50;15.20;;;1.80;64.20;;;;;;10405691;28;20030;-82
2022/03/01 16:43:55;;;;;;;129.97;48.00;;;1.50;65.30;;;;;;10407245;28;20115;-83
2022/03/01 16:48:57;;;;;;;71.77;25.30;;;1.20;66.00;;;;;;10408465;28;20026;-82
2022/03/01 16:53:59;;;;;;;48.23;18.53;;;0.90;67.20;;;;;;10407409;28;20025;-83
2022/03/01 16:59:00;;;;;;;45.23;17.70;;;0.70;67.10;;;;;;10410078;28;20025;-82
2022/03/01 17:04:00;;;;;;;49.77;18.20;;;0.50;68.00;;;;;;10414897;28;20094;-83
2022/03/01 17:09:02;;;;;;;42.30;17.03;;;0.40;68.80;;;;;;10415311;28;20524;-83
2022/03/01 17:14:04;;;;;;;95.07;34.20;;;0.20;69.80;;;;;;10414643;28;20611;-83
2022/03/01 17:19:05;;;;;;;121.37;41.90;;;0.00;70.10;;;;;;10414658;28;20032;-84
2022/03/01 17:24:06;;;;;;;158.87;54.57;;;-0.10;70.30;;;;;;10412565;28;20049;-83
2022/03/01 17:29:07;;;;;;;65.03;25.97;;;-0.20;71.00;;;;;;10412465;28;20029;-84
2022/03/01 17:34:08;;;;;;;75.43;31.50;;;-0.30;71.20;;;;;;10412860;28;20052;-83
2022/03/01 17:39:09;;;;;;;54.97;22.20;;;-0.30;72.20;;;;;;10396719;28;20065;-84
2022/03/01 17:44:10;;;;;;;56.00;20.60;;;-0.40;72.20;;;;;;10372466;28;20492;-84
2022/03/01 17:49:11;;;;;;;48.60;21.00;;;-0.50;72.60;;;;;;10379191;28;20057;-85
2022/03/01 17:54:12;;;;;;;58.70;21.20;;;-0.50;72.00;;;;;;10411326;28;20441;-83
2022/03/01 17:59:12;;;;;;;57.13;20.20;;;-0.60;72.50;;;;;;10412932;28;20448;-83
2022/03/01 18:04:13;;;;;;;61.73;21.47;;;-0.70;72.50;;;;;;10412537;28;20037;-84
2022/03/01 18:09:15;;;;;;;59.80;22.53;;;-0.70;72.80;;;;;;10411132;28;20034;-84
2022/03/01 18:14:16;;;;;;;60.83;23.30;;;-0.80;73.50;;;;;;10411365;28;20690;-84
2022/03/01 18:19:19;;;;;;;63.77;24.17;;;-0.80;73.50;;;;;;10412219;28;20021;-84
2022/03/01 18:24:20;;;;;;;63.03;22.50;;;-0.80;74.30;;;;;;10401790;28;20469;-85
2022/03/01 18:29:21;;;;;;;71.83;25.47;;;-0.90;74.00;;;;;;10408935;28;20091;-85
2022/03/01 18:34:23;;;;;;;62.67;25.77;;;-0.90;74.30;;;;;;10410995;28;20041;-86
2022/03/01 18:39:24;;;;;;;69.07;27.03;;;-1.00;75.10;;;;;;10406582;28;20116;-86
2022/03/01 18:44:25;;;;;;;74.40;26.70;;;-1.10;76.20;;;;;;10406781;28;20036;-84
2022/03/01 18:49:26;;;;;;;77.97;28.60;;;-1.10;76.90;;;;;;10411755;28;20036;-85
2022/03/01 18:54:27;;;;;;;79.10;30.47;;;-1.20;78.00;;;;;;10400702;28;20025;-84
2022/03/01 18:59:28;;;;;;;91.77;33.47;;;-1.20;78.00;;;;;;10406837;28;20513;-84
2022/03/01 19:04:29;;;;;;;97.80;35.17;;;-1.30;78.30;;;;;;10409183;28;20037;-84
2022/03/01 19:09:30;;;;;;;87.43;32.60;;;-1.30;78.70;;;;;;10407157;28;20033;-84
2022/03/01 19:14:31;;;;;;;81.00;30.43;;;-1.30;79.70;;;;;;10405775;28;20057;-85
2022/03/01 19:19:32;;;;;;;79.40;30.73;;;-1.40;80.10;;;;;;10408045;28;20033;-84
2022/03/01 19:24:33;;;;;;;75.23;28.47;;;-1.40;80.00;;;;;;10407775;28;20045;-87
2022/03/01 19:29:34;;;;;;;76.17;30.43;;;-1.40;81.20;;;;;;10408329;28;20032;-83
2022/03/01 19:34:35;;;;;;;71.83;28.10;;;-1.50;81.40;;;;;;10406224;28;20131;-85
2022/03/01 19:39:36;;;;;;;84.87;30.93;;;-1.50;81.80;;;;;;10406072;28;20045;-85
2022/03/01 19:44:37;;;;;;;79.47;32.33;;;-1.60;83.20;;;;;;10405502;28;20084;-87
2022/03/01 19:49:38;;;;;;;91.87;34.13;;;-1.60;83.60;;;;;;10413605;28;20076;-83
2022/03/01 19:54:39;;;;;;;92.90;35.80;;;-1.60;84.70;;;;;;10403248;28;20040;-85
2022/03/01 19:59:39;;;;;;;92.13;34.77;;;-1.70;85.60;;;;;;10402494;28;20083;-83
2022/03/01 20:04:40;;;;;;;107.50;39.00;;;-1.80;86.30;;;;;;10401159;28;20049;-83
2022/03/01 20:09:41;;;;;;;111.47;43.57;;;-1.90;87.30;;;;;;10407278;28;20030;-85
2022/03/01 20:14:45;;;;;;;118.40;45.90;;;-1.90;88.70;;;;;;10402670;28;20057;-85
2022/03/01 20:19:46;;;;;;;115.03;44.07;;;-1.90;89.70;;;;;;10411706;28;20033;-82
2022/03/01 20:24:47;;;;;;;110.77;39.80;;;-2.00;90.20;;;;;;10408013;28;20668;-83
2022/03/01 20:29:48;;;;;;;113.57;39.00;;;-2.00;90.50;;;;;;10401455;28;20029;-84
2022/03/01 20:34:49;;;;;;;93.00;36.60;;;-2.10;91.50;;;;;;10411088;28;20381;-84
2022/03/01 20:39:49;;;;;;;81.47;33.20;;;-2.10;92.20;;;;;;10411279;28;20044;-85
2022/03/01 20:44:50;;;;;;;91.20;32.83;;;-2.00;92.20;;;;;;10415284;28;20110;-84
2022/03/01 20:49:51;;;;;;;75.50;29.77;;;-2.00;92.80;;;;;;10410385;28;20110;-84
2022/03/01 20:54:51;;;;;;;80.10;32.20;;;-2.00;92.50;;;;;;10404367;28;20037;-84
2022/03/01 20:59:52;;;;;;;78.90;29.63;;;-1.80;92.80;;;;;;10405675;28;20121;-85
2022/03/01 21:04:53;;;;;;;75.20;29.77;;;-1.80;93.10;;;;;;10410992;28;20037;-87
2022/03/01 21:09:55;;;;;;;82.57;32.00;;;-1.80;93.60;;;;;;10413234;28;20389;-86
2022/03/01 21:14:56;;;;;;;81.00;31.03;;;-1.70;92.30;;;;;;10413911;28;20052;-87
2022/03/01 21:19:57;;;;;;;88.63;37.37;;;-1.50;91.70;;;;;;10412779;28;20052;-87
2022/03/01 21:24:58;;;;;;;90.30;36.37;;;-1.40;91.40;;;;;;10412229;28;20120;-86
2022/03/01 21:29:59;;;;;;;102.63;38.53;;;-1.50;91.40;;;;;;10413146;28;20109;-85
2022/03/01 21:35:00;;;;;;;100.53;39.40;;;-1.50;91.60;;;;;;10412990;28;20465;-86
2022/03/01 21:40:04;;;;;;;106.07;37.07;;;-1.50;91.70;;;;;;10410820;28;20080;-87
2022/03/01 21:45:06;;;;;;;117.43;44.00;;;-1.60;91.60;;;;;;10411386;28;20132;-86
2022/03/01 21:50:08;;;;;;;126.70;45.27;;;-1.70;92.00;;;;;;10398835;28;20117;-87
2022/03/01 21:55:10;;;;;;;119.23;42.97;;;-1.70;92.50;;;;;;10406668;28;20037;-86
2022/03/01 22:00:14;;;;;;;114.00;42.00;;;-1.80;92.70;;;;;;10411241;28;20028;-86
2022/03/01 22:05:17;;;;;;;116.57;43.73;;;-1.80;93.30;;;;;;10411678;28;20489;-86
2022/03/01 22:10:19;;;;;;;115.77;44.23;;;-1.80;93.40;;;;;;10412262;28;20125;-87
2022/03/01 22:15:19;;;;;;;116.73;42.40;;;-1.90;94.30;;;;;;10409575;28;20421;-86
2022/03/01 22:20:21;;;;;;;110.90;41.77;;;-2.00;94.60;;;;;;10409577;28;20029;-86
2022/03/01 22:25:22;;;;;;;109.37;42.60;;;-2.00;95.00;;;;;;10410377;28;20044;-85
2022/03/01 22:30:23;;;;;;;113.63;41.73;;;-2.00;96.10;;;;;;10410606;28;20739;-86
2022/03/01 22:35:24;;;;;;;114.30;44.20;;;-2.10;97.00;;;;;;10410538;28;20053;-87
2022/03/01 22:40:25;;;;;;;115.63;42.30;;;-2.10;97.80;;;;;;10410554;28;20057;-86
2022/03/01 22:45:26;;;;;;;112.87;41.53;;;-2.00;97.00;;;;;;10408052;28;20223;-86
2022/03/01 22:50:31;;;;;;;106.07;40.00;;;-2.00;96.80;;;;;;10408401;28;20374;-86
2022/03/01 22:55:32;;;;;;;106.90;41.03;;;-2.00;96.70;;;;;;10408897;28;20075;-86
2022/03/01 23:00:33;;;;;;;107.10;42.77;;;-2.00;96.30;;;;;;10409179;28;20033;-86
2022/03/01 23:05:35;;;;;;;109.43;40.60;;;-2.10;97.30;;;;;;10409419;28;20045;-86
2022/03/01 23:10:37;;;;;;;107.37;40.27;;;-2.10;96.70;;;;;;10408710;28;20067;-85
2022/03/01 23:15:38;;;;;;;106.77;40.70;;;-2.10;97.10;;;;;;10409381;28;20610;-86
2022/03/01 23:20:38;;;;;;;102.53;40.00;;;-2.10;97.50;;;;;;10409940;28;20104;-86
2022/03/01 23:25:39;;;;;;;103.07;41.33;;;-2.20;98.30;;;;;;10409097;28;20046;-87
2022/03/01 23:30:40;;;;;;;97.37;36.97;;;-2.30;98.80;;;;;;10406799;28;20069;-86
2022/03/01 23:35:41;;;;;;;109.07;39.33;;;-2.40;99.20;;;;;;10408091;28;20030;-86
2022/03/01 23:40:42;;;;;;;104.10;39.73;;;-2.40;99.50;;;;;;10408477;28;20046;-86
2022/03/01 23:45:43;;;;;;;94.57;37.83;;;-2.40;99.60;;;;;;10405907;28;20057;-86
2022/03/01 23:50:44;;;;;;;87.00;35.40;;;-2.40;99.30;;;;;;10407781;28;20037;-86
2022/03/01 23:55:44;;;;;;;91.63;34.20;;;-2.40;99.20;;;;;;10404972;28;20026;-86
